Kerikeri/Bay of Islands (NZKK)

Aerodrome — Elev 492
New Zealand
S035.15.46.001 E173.54.42.998
Loading chart...

Current Weather

NZKK 230230Z 02006KT 320V070 20KM BKN038 20/12 Q1027 RMK AUTO VATSIM USE ONLY

Published 21 minutes ago

Airport Activity

Loading chart...
Loading chart...

Positions

CallsignRadio Name / Freq / Voice Room / TypeFrequencyVoice RoomType
NZAA_CTR Auckland Control
123.900
nzaa_ctr
123.900nzaa_ctr
NZCH-R_CTR Auckland Control
126.000
nzch-r_ctr
126.000nzch-r_ctr
UNICOM NZZC UNICOM
122.800
unicom_nzzc
122.800unicom_nzzc

Charts